createdAt,value
2022-11-16T00:01:26.390Z,6.75
2022-11-16T00:03:54.613Z,6.95
2022-11-16T00:06:22.363Z,9.70
2022-11-16T00:09:10.348Z,6.82
2022-11-16T00:11:38.060Z,8.00
2022-11-16T00:14:05.664Z,6.88
2022-11-16T00:16:32.717Z,6.35
2022-11-16T00:19:02.704Z,7.43
2022-11-16T00:21:29.915Z,5.93
2022-11-16T00:23:56.584Z,6.63
2022-11-16T00:26:24.011Z,6.15
2022-11-16T00:28:52.634Z,5.85
2022-11-16T00:31:19.400Z,4.72
2022-11-16T00:33:46.557Z,6.07
2022-11-16T00:36:13.898Z,5.17
2022-11-16T00:38:41.364Z,7.55
2022-11-16T00:41:09.009Z,9.05
2022-11-16T00:43:36.640Z,7.70
2022-11-16T00:46:04.230Z,6.45
2022-11-16T00:48:31.730Z,5.83
2022-11-16T00:50:58.500Z,6.18
2022-11-16T00:53:24.976Z,6.30
2022-11-16T00:55:51.624Z,9.38
2022-11-16T00:58:18.148Z,9.85
2022-11-16T01:00:44.755Z,8.53
2022-11-16T01:03:11.281Z,9.07
2022-11-16T01:05:38.186Z,9.05
2022-11-16T01:08:05.029Z,8.82
2022-11-16T01:10:31.781Z,6.32
2022-11-16T01:12:58.650Z,6.50
2022-11-16T01:15:27.363Z,6.35
2022-11-16T01:17:55.713Z,8.88
2022-11-16T01:20:25.276Z,8.23
2022-11-16T01:22:52.573Z,5.30
2022-11-16T01:25:19.985Z,7.47
2022-11-16T01:27:46.654Z,10.35
2022-11-16T01:30:14.621Z,8.63
2022-11-16T01:32:41.145Z,9.20
2022-11-16T01:35:08.195Z,9.32
2022-11-16T01:37:34.764Z,6.50
2022-11-16T01:40:01.310Z,10.73
2022-11-16T01:42:29.940Z,9.10
2022-11-16T01:45:07.056Z,7.55
2022-11-16T01:47:33.655Z,12.55
2022-11-16T01:50:14.399Z,10.77
2022-11-16T01:52:47.691Z,8.07
2022-11-16T01:55:14.438Z,7.65
2022-11-16T01:57:43.738Z,10.18
2022-11-16T02:00:12.351Z,10.75
2022-11-16T02:02:38.928Z,9.57
2022-11-16T02:05:06.569Z,9.00
2022-11-16T02:08:22.198Z,8.35
2022-11-16T02:11:19.481Z,7.13
2022-11-16T02:14:03.958Z,9.18
2022-11-16T02:16:38.508Z,8.53
2022-11-16T02:19:28.007Z,11.50
2022-11-16T02:22:22.278Z,9.60
2022-11-16T02:24:54.857Z,8.38
2022-11-16T02:27:52.597Z,9.02
2022-11-16T02:30:20.957Z,7.90
2022-11-16T02:32:57.354Z,7.65
2022-11-16T02:35:44.605Z,8.32
2022-11-16T02:38:15.202Z,8.40
2022-11-16T02:40:46.578Z,12.75
2022-11-16T02:43:21.059Z,8.40
2022-11-16T02:45:50.755Z,10.43
2022-11-16T02:48:23.319Z,10.50
2022-11-16T02:50:52.763Z,9.30
2022-11-16T02:53:24.352Z,10.95
2022-11-16T02:55:51.363Z,11.30
2022-11-16T02:58:24.487Z,8.18
2022-11-16T03:01:08.733Z,9.05
2022-11-16T03:03:38.739Z,8.70
2022-11-16T03:06:11.435Z,10.77
2022-11-16T03:08:41.920Z,11.60
2022-11-16T03:11:29.109Z,9.30
2022-11-16T03:13:59.279Z,11.57
2022-11-16T03:16:36.599Z,10.02
2022-11-16T03:19:07.452Z,9.82
2022-11-16T03:21:41.106Z,10.43
2022-11-16T03:24:08.177Z,11.20
2022-11-16T03:27:00.928Z,14.13
2022-11-16T03:29:33.281Z,11.38
2022-11-16T03:32:10.018Z,14.93
2022-11-16T03:34:38.407Z,13.07
2022-11-16T03:37:06.893Z,12.10
2022-11-16T03:39:37.118Z,13.13
2022-11-16T03:42:11.013Z,12.35
2022-11-16T03:44:38.632Z,12.82
2022-11-16T03:47:05.112Z,11.80
2022-11-16T03:49:31.726Z,12.70
2022-11-16T03:51:58.673Z,12.68
2022-11-16T03:54:25.321Z,12.10
2022-11-16T03:56:51.801Z,10.90
2022-11-16T03:59:18.295Z,14.97
2022-11-16T04:01:45.155Z,14.40
2022-11-16T04:04:32.065Z,11.32
2022-11-16T04:07:17.389Z,11.45
2022-11-16T04:10:02.568Z,13.10
2022-11-16T04:12:47.728Z,14.07
2022-11-16T04:15:32.624Z,16.02
2022-11-16T04:18:17.655Z,13.88
2022-11-16T04:21:03.214Z,15.52
2022-11-16T04:23:48.580Z,15.88
2022-11-16T04:26:15.502Z,14.33
2022-11-16T04:28:42.163Z,11.85
2022-11-16T04:31:27.445Z,16.13
2022-11-16T04:34:12.576Z,28.05
2022-11-16T04:36:57.758Z,17.33
2022-11-16T04:39:24.268Z,12.87
2022-11-16T04:42:09.608Z,11.85
2022-11-16T04:44:54.710Z,14.32
2022-11-16T04:47:21.194Z,12.05
2022-11-16T04:49:47.676Z,14.20
2022-11-16T04:52:14.109Z,13.50
2022-11-16T04:54:40.582Z,17.08
2022-11-16T04:57:07.127Z,15.32
2022-11-16T04:59:33.577Z,14.15
2022-11-16T05:02:09.110Z,14.50
2022-11-16T05:04:44.749Z,16.13
2022-11-16T05:07:13.620Z,13.73
2022-11-16T05:09:46.383Z,14.82
2022-11-16T05:12:19.575Z,16.00
2022-11-16T05:14:46.241Z,16.75
2022-11-16T05:17:13.924Z,15.20
2022-11-16T05:19:59.064Z,17.65
2022-11-16T05:22:25.947Z,18.95
2022-11-16T05:24:52.934Z,18.33
2022-11-16T05:27:21.499Z,15.35
2022-11-16T05:29:49.633Z,16.37
2022-11-16T05:32:16.720Z,18.17
2022-11-16T05:34:43.232Z,19.27
2022-11-16T05:37:10.034Z,18.08
2022-11-16T05:39:36.673Z,20.20
2022-11-16T05:42:03.652Z,18.93
2022-11-16T05:44:32.852Z,24.15
2022-11-16T05:46:59.681Z,20.92
2022-11-16T05:49:26.460Z,20.20
2022-11-16T05:51:52.966Z,21.77
2022-11-16T05:54:21.722Z,17.30
2022-11-16T05:56:49.346Z,19.20
2022-11-16T05:59:18.134Z,19.58
2022-11-16T06:01:45.172Z,18.33
2022-11-16T06:04:12.276Z,20.50
2022-11-16T06:06:38.740Z,18.30
2022-11-16T06:09:06.197Z,20.42
2022-11-16T06:11:35.934Z,17.38
2022-11-16T06:14:03.122Z,17.75
2022-11-16T06:16:29.634Z,16.02
2022-11-16T06:18:56.180Z,17.57
2022-11-16T06:21:22.889Z,14.52
2022-11-16T06:23:49.448Z,14.88
2022-11-16T06:26:15.949Z,13.70
2022-11-16T06:28:42.558Z,33.03
2022-11-16T06:31:09.157Z,16.80
2022-11-16T06:33:35.738Z,18.85
2022-11-16T06:36:02.276Z,14.50
2022-11-16T06:38:28.999Z,14.35
2022-11-16T06:40:57.792Z,16.77
2022-11-16T06:43:25.475Z,16.97
2022-11-16T06:45:54.637Z,17.92
2022-11-16T06:48:22.497Z,15.05
2022-11-16T06:50:49.853Z,16.27
2022-11-16T06:53:17.125Z,16.80
2022-11-16T06:55:43.620Z,18.77
2022-11-16T06:58:12.906Z,22.77
2022-11-16T07:00:39.443Z,19.25
2022-11-16T07:03:06.009Z,23.75
2022-11-16T07:05:33.075Z,22.13
2022-11-16T07:07:59.607Z,17.03
2022-11-16T07:10:26.220Z,17.45
2022-11-16T07:12:52.763Z,15.75
2022-11-16T07:15:19.545Z,17.95
2022-11-16T07:17:46.301Z,15.70
2022-11-16T07:20:13.153Z,16.40
2022-11-16T07:22:39.678Z,17.88
2022-11-16T07:25:06.827Z,14.20
2022-11-16T07:27:33.269Z,13.25
2022-11-16T07:30:01.940Z,16.02
2022-11-16T07:32:30.730Z,15.93
2022-11-16T07:34:59.463Z,14.65
2022-11-16T07:37:26.466Z,14.30
2022-11-16T07:39:53.090Z,18.20
2022-11-16T07:42:20.276Z,14.88
2022-11-16T07:44:46.803Z,20.37
2022-11-16T07:47:13.321Z,13.75
2022-11-16T07:49:40.026Z,14.60
2022-11-16T07:52:09.629Z,13.93
2022-11-16T07:54:36.712Z,11.88
2022-11-16T07:57:03.285Z,13.30
2022-11-16T07:59:29.773Z,13.77
2022-11-16T08:01:56.538Z,14.73
2022-11-16T08:04:23.271Z,11.65
2022-11-16T08:06:51.603Z,22.55
2022-11-16T08:09:18.299Z,12.47
2022-11-16T08:11:44.788Z,11.77
2022-11-16T08:14:12.686Z,12.13
2022-11-16T08:16:39.218Z,17.60
2022-11-16T08:19:05.825Z,12.98
2022-11-16T08:21:32.283Z,11.13
2022-11-16T08:23:59.152Z,10.30
2022-11-16T08:26:26.351Z,13.63
2022-11-16T08:28:53.853Z,9.77
2022-11-16T08:31:23.952Z,14.00
2022-11-16T08:33:51.966Z,10.03
2022-11-16T08:36:19.148Z,10.13
2022-11-16T08:38:47.658Z,14.77
2022-11-16T08:41:15.215Z,11.85
2022-11-16T08:43:41.901Z,10.73
2022-11-16T08:46:09.903Z,11.00
2022-11-16T08:48:37.511Z,8.80
2022-11-16T08:51:22.248Z,9.98
2022-11-16T08:53:49.736Z,12.30
2022-11-16T08:56:18.180Z,9.07
2022-11-16T08:58:46.940Z,13.47
2022-11-16T09:01:19.942Z,7.13
2022-11-16T09:03:47.192Z,10.40
2022-11-16T09:06:14.436Z,15.60
2022-11-16T09:08:43.640Z,8.35
2022-11-16T09:11:13.211Z,9.50
2022-11-16T09:13:40.062Z,11.98
2022-11-16T09:16:06.761Z,7.70
2022-11-16T09:18:43.213Z,8.70
2022-11-16T09:21:09.811Z,6.28
2022-11-16T09:23:36.552Z,5.23
2022-11-16T09:26:04.933Z,6.50
2022-11-16T09:28:32.221Z,6.43
2022-11-16T09:31:04.237Z,4.18
2022-11-16T09:33:31.749Z,9.98
2022-11-16T09:36:09.280Z,6.60
2022-11-16T09:39:13.896Z,5.28
2022-11-16T09:41:59.304Z,4.18
2022-11-16T09:44:54.144Z,4.07
2022-11-16T09:47:23.445Z,8.93
2022-11-16T09:49:58.372Z,8.17
2022-11-16T09:52:36.582Z,2.97
2022-11-16T09:55:25.520Z,5.03
2022-11-16T09:57:55.419Z,2.45
2022-11-16T10:00:23.680Z,6.03
2022-11-16T10:03:05.345Z,5.70
2022-11-16T10:06:10.448Z,4.20
2022-11-16T10:08:46.670Z,3.72
2022-11-16T10:11:39.025Z,4.95
2022-11-16T10:14:25.938Z,5.57
2022-11-16T10:17:09.916Z,4.73
2022-11-16T10:19:51.487Z,5.97
2022-11-16T10:22:29.977Z,7.40
2022-11-16T10:24:58.468Z,5.97
2022-11-16T10:27:44.435Z,2.42
2022-11-16T10:30:15.806Z,3.87
2022-11-16T10:33:08.077Z,4.32
2022-11-16T10:35:41.357Z,5.07
2022-11-16T10:38:17.108Z,3.60
2022-11-16T10:40:49.550Z,4.18
2022-11-16T10:43:18.758Z,7.30
2022-11-16T10:46:05.184Z,5.10
2022-11-16T10:48:41.181Z,5.85
2022-11-16T10:51:09.493Z,7.43
2022-11-16T10:53:38.386Z,5.40
2022-11-16T10:56:34.240Z,6.90
2022-11-16T10:59:04.390Z,7.47
2022-11-16T11:02:01.307Z,2.38
2022-11-16T11:04:30.325Z,6.85
2022-11-16T11:07:02.386Z,7.03
2022-11-16T11:09:33.290Z,14.13
2022-11-16T11:12:19.625Z,4.40
2022-11-16T11:15:01.489Z,5.00
2022-11-16T11:17:29.830Z,2.03
2022-11-16T11:20:06.135Z,3.35
2022-11-16T11:22:35.059Z,4.83
2022-11-16T11:25:03.485Z,6.13
2022-11-16T11:27:33.968Z,3.20
2022-11-16T11:30:01.459Z,6.13
2022-11-16T11:32:35.104Z,9.00
2022-11-16T11:35:03.542Z,4.73
2022-11-16T11:37:34.549Z,4.97
2022-11-16T11:40:18.702Z,2.88
2022-11-16T11:42:58.615Z,4.07
2022-11-16T11:45:31.894Z,5.10
2022-11-16T11:48:08.007Z,3.20
2022-11-16T11:50:54.201Z,6.47
2022-11-16T11:53:37.112Z,7.22
2022-11-16T11:56:04.231Z,3.83
2022-11-16T11:58:33.911Z,4.28
2022-11-16T12:01:34.048Z,7.43
2022-11-16T12:04:38.407Z,46.00
2022-11-16T12:07:23.546Z,4.90
2022-11-16T12:10:20.447Z,6.85
2022-11-16T12:13:06.027Z,4.07
2022-11-16T12:15:49.395Z,5.13
2022-11-16T12:18:35.158Z,4.78
2022-11-16T12:21:27.521Z,4.85
2022-11-16T12:24:07.650Z,8.13
2022-11-16T12:26:58.387Z,8.00
2022-11-16T12:29:49.022Z,5.80
2022-11-16T12:32:18.559Z,9.32
2022-11-16T12:35:00.208Z,9.70
2022-11-16T12:37:40.436Z,5.32
2022-11-16T12:40:06.860Z,7.38
2022-11-16T12:43:06.996Z,6.13
2022-11-16T12:45:51.354Z,7.28
2022-11-16T12:48:39.071Z,9.30
2022-11-16T12:51:30.488Z,6.22
2022-11-16T12:54:15.564Z,5.57
2022-11-16T12:56:48.849Z,7.53
2022-11-16T12:59:36.756Z,11.45
2022-11-16T13:02:35.996Z,6.22
2022-11-16T13:05:13.185Z,7.00
2022-11-16T13:07:45.915Z,5.20
2022-11-16T13:10:22.726Z,5.20
2022-11-16T13:12:55.812Z,8.68
2022-11-16T13:15:40.153Z,6.55
2022-11-16T13:18:13.085Z,6.90
2022-11-16T13:20:42.623Z,7.35
2022-11-16T13:23:13.221Z,3.63
2022-11-16T13:25:52.648Z,5.00
2022-11-16T13:28:40.335Z,5.75
2022-11-16T13:31:21.439Z,3.60
2022-11-16T13:33:52.604Z,10.23
2022-11-16T13:36:39.239Z,5.80
2022-11-16T13:39:08.126Z,3.17
2022-11-16T13:41:36.001Z,4.65
2022-11-16T13:44:22.733Z,7.15
2022-11-16T13:46:56.290Z,4.50
2022-11-16T13:49:29.336Z,7.20
2022-11-16T13:52:23.835Z,4.05
2022-11-16T13:54:54.530Z,4.45
2022-11-16T13:57:34.822Z,6.55
2022-11-16T14:00:01.399Z,7.40
2022-11-16T14:02:36.076Z,4.63
2022-11-16T14:05:04.852Z,2.70
2022-11-16T14:07:50.573Z,1.92
2022-11-16T14:10:35.758Z,3.75
2022-11-16T14:13:04.394Z,5.78
2022-11-16T14:15:36.118Z,6.30
2022-11-16T14:18:32.260Z,10.23
2022-11-16T14:21:07.091Z,6.93
2022-11-16T14:23:55.577Z,6.53
2022-11-16T14:26:59.205Z,4.05
2022-11-16T14:29:53.556Z,2.87
2022-11-16T14:32:31.091Z,7.00
2022-11-16T14:35:00.522Z,4.53
2022-11-16T14:37:29.960Z,5.50
2022-11-16T14:40:13.942Z,4.47
2022-11-16T14:43:15.405Z,5.07
2022-11-16T14:45:38.715Z,4.78
2022-11-16T14:48:17.105Z,2.40
2022-11-16T14:51:06.270Z,6.20
2022-11-16T14:53:36.573Z,8.27
2022-11-16T14:56:07.858Z,7.50
2022-11-16T14:58:35.747Z,4.57
2022-11-16T15:01:05.320Z,5.53
2022-11-16T15:03:37.153Z,6.88
2022-11-16T15:06:06.400Z,5.97
2022-11-16T15:08:55.740Z,4.57
2022-11-16T15:11:49.640Z,4.60
2022-11-16T15:14:39.997Z,6.10
2022-11-16T15:17:22.353Z,3.28
2022-11-16T15:20:02.658Z,9.60
2022-11-16T15:22:32.449Z,3.17
2022-11-16T15:25:01.374Z,3.35
2022-11-16T15:27:27.927Z,2.80
2022-11-16T15:29:54.524Z,7.03
2022-11-16T15:32:21.228Z,6.85
2022-11-16T15:34:52.793Z,2.03
2022-11-16T15:37:30.285Z,4.72
2022-11-16T15:39:59.012Z,6.00
2022-11-16T15:42:28.068Z,3.60
2022-11-16T15:44:55.590Z,6.53
2022-11-16T15:47:23.159Z,2.37
2022-11-16T15:49:52.757Z,7.00
2022-11-16T15:52:55.178Z,5.72
2022-11-16T15:55:28.647Z,4.28
2022-11-16T15:58:26.293Z,6.97
2022-11-16T16:00:54.420Z,3.60
2022-11-16T16:03:27.288Z,5.00
2022-11-16T16:05:55.276Z,6.72
2022-11-16T16:08:38.050Z,4.40
2022-11-16T16:11:27.070Z,5.13
2022-11-16T16:14:02.030Z,7.57
2022-11-16T16:16:36.832Z,2.05
2022-11-16T16:19:09.812Z,3.90
2022-11-16T16:21:45.313Z,7.13
2022-11-16T16:24:46.637Z,3.33
2022-11-16T16:27:19.242Z,5.67
2022-11-16T16:29:50.944Z,2.58
2022-11-16T16:32:28.742Z,3.17
2022-11-16T16:35:00.508Z,5.85
2022-11-16T16:37:28.818Z,2.05
2022-11-16T16:39:55.517Z,6.67
2022-11-16T16:42:22.103Z,3.83
2022-11-16T16:44:49.289Z,3.30
2022-11-16T16:47:16.923Z,5.75
2022-11-16T16:49:43.472Z,3.03
2022-11-16T16:52:12.355Z,3.93
2022-11-16T16:54:39.474Z,8.55
2022-11-16T16:57:06.085Z,5.50
2022-11-16T16:59:32.668Z,7.40
2022-11-16T17:01:59.779Z,6.55
2022-11-16T17:04:26.502Z,11.17
2022-11-16T17:06:53.425Z,6.40
2022-11-16T17:09:20.373Z,6.57
2022-11-16T17:11:47.782Z,4.25
2022-11-16T17:14:14.367Z,6.70
2022-11-16T17:16:40.900Z,10.33
2022-11-16T17:19:07.390Z,4.82
2022-11-16T17:21:33.951Z,8.25
2022-11-16T17:24:00.508Z,8.63
2022-11-16T17:26:29.334Z,7.68
2022-11-16T17:28:57.418Z,10.97
2022-11-16T17:31:25.563Z,8.88
2022-11-16T17:33:52.583Z,7.13
2022-11-16T17:36:20.373Z,9.93
2022-11-16T17:38:46.890Z,10.68
2022-11-16T17:41:18.407Z,12.00
2022-11-16T17:43:46.120Z,9.45
2022-11-16T17:46:23.731Z,9.10
2022-11-16T17:48:50.790Z,10.98
2022-11-16T17:51:19.973Z,9.23
2022-11-16T17:53:46.793Z,10.57
2022-11-16T17:56:15.443Z,12.88
2022-11-16T17:58:42.555Z,9.32
2022-11-16T18:01:09.168Z,10.15
2022-11-16T18:03:37.081Z,15.93
2022-11-16T18:06:09.210Z,11.60
2022-11-16T18:08:36.764Z,11.45
2022-11-16T18:11:09.567Z,21.80
2022-11-16T18:13:37.166Z,11.73
2022-11-16T18:16:04.920Z,10.48
2022-11-16T18:18:32.218Z,11.37
2022-11-16T18:21:00.232Z,11.95
2022-11-16T18:23:27.596Z,10.95
2022-11-16T18:25:54.912Z,10.70
2022-11-16T18:28:22.262Z,7.50
2022-11-16T18:30:48.762Z,8.03
2022-11-16T18:33:16.348Z,11.65
2022-11-16T18:35:44.034Z,10.60
2022-11-16T18:38:13.400Z,7.05
2022-11-16T18:40:42.569Z,8.93
2022-11-16T18:43:12.941Z,7.17
2022-11-16T18:45:39.469Z,9.50
2022-11-16T18:48:06.086Z,10.45
2022-11-16T18:50:32.550Z,11.00
2022-11-16T18:52:59.072Z,9.77
2022-11-16T18:55:25.615Z,12.37
2022-11-16T18:57:52.100Z,9.32
2022-11-16T19:00:19.408Z,16.08
2022-11-16T19:02:46.023Z,7.47
2022-11-16T19:05:12.577Z,10.10
2022-11-16T19:07:39.233Z,8.83
2022-11-16T19:10:06.345Z,11.63
2022-11-16T19:12:32.809Z,12.35
2022-11-16T19:14:59.499Z,12.85
2022-11-16T19:17:26.976Z,7.97
2022-11-16T19:19:53.545Z,9.10
2022-11-16T19:22:20.450Z,11.38
2022-11-16T19:24:46.906Z,8.13
2022-11-16T19:27:13.846Z,14.40
2022-11-16T19:29:40.629Z,10.52
2022-11-16T19:32:07.143Z,8.13
2022-11-16T19:34:33.750Z,13.13
2022-11-16T19:37:00.343Z,8.23
2022-11-16T19:39:26.961Z,10.30
2022-11-16T19:41:53.442Z,8.07
2022-11-16T19:44:20.028Z,7.77
2022-11-16T19:46:46.620Z,14.18
2022-11-16T19:49:20.026Z,15.10
2022-11-16T19:51:47.404Z,10.07
2022-11-16T19:54:14.836Z,11.10
2022-11-16T19:56:42.477Z,5.57
2022-11-16T19:59:09.645Z,8.95
2022-11-16T20:01:36.247Z,9.60
2022-11-16T20:04:04.279Z,9.15
2022-11-16T20:06:33.816Z,9.55
2022-11-16T20:09:04.058Z,7.87
2022-11-16T20:11:34.020Z,11.70
2022-11-16T20:14:01.822Z,8.93
2022-11-16T20:16:38.750Z,11.63
2022-11-16T20:19:07.780Z,9.25
2022-11-16T20:21:39.794Z,8.97
2022-11-16T20:24:08.838Z,13.07
2022-11-16T20:26:37.164Z,11.82
2022-11-16T20:29:03.739Z,9.55
2022-11-16T20:31:32.970Z,9.55
2022-11-16T20:34:05.135Z,10.10
2022-11-16T20:36:33.279Z,10.57
2022-11-16T20:39:00.388Z,8.57
2022-11-16T20:41:29.610Z,9.05
2022-11-16T20:43:58.081Z,8.35
2022-11-16T20:46:26.511Z,9.07
2022-11-16T20:48:53.345Z,8.75
2022-11-16T20:51:20.668Z,7.13
2022-11-16T20:53:48.634Z,8.95
2022-11-16T20:56:17.250Z,7.47
2022-11-16T20:58:43.793Z,6.13
2022-11-16T21:01:13.176Z,8.15
2022-11-16T21:03:40.394Z,8.80
2022-11-16T21:06:08.796Z,12.70
2022-11-16T21:08:36.892Z,7.40
2022-11-16T21:11:13.532Z,6.97
2022-11-16T21:13:58.644Z,7.80
2022-11-16T21:16:25.496Z,8.18
2022-11-16T21:18:54.336Z,6.70
2022-11-16T21:21:20.882Z,7.95
2022-11-16T21:23:51.687Z,9.40
2022-11-16T21:26:20.452Z,7.63
2022-11-16T21:28:46.990Z,9.23
2022-11-16T21:31:16.499Z,10.30
2022-11-16T21:33:47.304Z,9.50
2022-11-16T21:36:25.280Z,4.90
2022-11-16T21:38:52.680Z,4.45
2022-11-16T21:41:20.411Z,6.53
2022-11-16T21:43:47.085Z,9.85
2022-11-16T21:46:27.459Z,8.25
2022-11-16T21:48:56.137Z,5.47
2022-11-16T21:51:25.149Z,7.20
2022-11-16T21:53:51.828Z,5.28
2022-11-16T21:56:20.069Z,5.35
2022-11-16T21:58:46.912Z,4.63
2022-11-16T22:01:15.841Z,3.80
2022-11-16T22:03:42.743Z,4.75
2022-11-16T22:06:48.936Z,6.20
2022-11-16T22:09:16.740Z,3.40
2022-11-16T22:11:43.289Z,7.63
2022-11-16T22:14:09.824Z,5.37
2022-11-16T22:16:36.310Z,2.78
2022-11-16T22:19:02.775Z,7.30
2022-11-16T22:21:29.224Z,5.05
2022-11-16T22:23:55.705Z,6.05
2022-11-16T22:26:22.360Z,3.70
2022-11-16T22:28:50.648Z,8.98
2022-11-16T22:31:17.217Z,6.85
2022-11-16T22:33:43.714Z,6.18
2022-11-16T22:36:10.842Z,6.47
2022-11-16T22:38:37.599Z,4.78
2022-11-16T22:41:04.343Z,4.20
2022-11-16T22:43:31.600Z,4.43
2022-11-16T22:45:59.842Z,5.75
2022-11-16T22:48:31.055Z,4.03
2022-11-16T22:51:21.033Z,5.63
2022-11-16T22:53:47.941Z,3.40
2022-11-16T22:56:14.515Z,4.50
2022-11-16T22:58:41.018Z,4.82
2022-11-16T23:01:09.147Z,9.50
2022-11-16T23:03:36.989Z,4.15
2022-11-16T23:06:05.249Z,5.45
2022-11-16T23:08:32.975Z,5.05
2022-11-16T23:11:37.925Z,5.93
2022-11-16T23:14:24.263Z,4.03
2022-11-16T23:16:51.614Z,6.18
2022-11-16T23:19:38.260Z,7.72
2022-11-16T23:22:24.528Z,5.35
2022-11-16T23:25:09.646Z,7.43
2022-11-16T23:27:44.767Z,5.20
2022-11-16T23:30:13.320Z,6.53
2022-11-16T23:32:41.346Z,5.63
2022-11-16T23:35:09.185Z,8.02
2022-11-16T23:37:52.935Z,4.68
2022-11-16T23:40:19.934Z,5.53
2022-11-16T23:43:05.074Z,5.20
2022-11-16T23:45:31.606Z,4.80
2022-11-16T23:47:58.080Z,4.50
2022-11-16T23:50:24.610Z,6.03
2022-11-16T23:52:51.103Z,4.37
2022-11-16T23:55:17.613Z,5.60
2022-11-16T23:57:44.143Z,6.75
